Cumberland, Iowa
Current Conditions -  °F | °C
As of 9:55 PM on Sunday 23 Nov 2014 (Local Time) from KAIO Reporting Station
Overcast Overcast  
Wind Chill: -4°   Ceiling: 3400
Heat Index:   Visibility: 10mi
Dew Point: -2°   Wind: 26mph
Humidity: 70%   Direction: 340°NNW
Pressure: 29.46"   Gusts: 32mph
Location:  41.27°N, 94.87°W
Report Text: KAIO 240355Z AUTO 34023G28KT 10SM OVC034 03/M02 A2946 RMK AO2
Loading
Personal Weather Stations






























Interactive Weather Map New forecast layout! Learn more

10-Day Weather Forecast

Advertisements
Track Severe Weather on mobile